Terminal Aerodrome Forecast
Issued by NWS

Home | Current Version | Previous Version | Text Only | Print | Product List | Glossary On
Versions: 1 2 3 4 5 6 7 8 9 10 11 12
000
FTUS46 KSTO 272300
TAFRDD
TAF
KRDD 272334Z 2800/2824 19008KT P6SM FEW200
     FM280400 VRB05KT P6SM FEW200
     FM282200 19007KT P6SM FEW200=

USA.gov is the U.S. government's official web portal to all federal, state and local government web resources and services.